Time;durP1;ratioP1;P1;durP2;ratioP2;P2;SDS_P1;SDS_P2;PMS_P1;PMS_P2;Temp;Humidity;BMP_temperature;BMP_pressure;BME280_temperature;BME280_humidity;BME280_pressure;Samples;Min_cycle;Max_cycle;Signal;HPM_P1;HPM_P2
2021/12/16 00:09:22;;;;;;;30.90;19.02;;;4.20;99.90;;;;;;5072974;28;20040;-78
2021/12/16 00:29:00;;;;;;;31.55;18.17;;;4.30;99.90;;;;;;5040638;28;20368;-77
2021/12/16 00:31:32;;;;;;;33.45;20.15;;;4.50;99.90;;;;;;5070505;28;20047;-72
2021/12/16 00:34:04;;;;;;;29.00;18.92;;;4.40;99.90;;;;;;5055613;28;20032;-75
2021/12/16 00:36:36;;;;;;;35.83;19.58;;;4.40;99.90;;;;;;5052971;28;20040;-75
2021/12/16 00:39:07;;;;;;;33.40;19.52;;;4.40;99.90;;;;;;5035684;28;20041;-74
2021/12/16 00:41:45;;;;;;;33.13;19.85;;;4.40;99.90;;;;;;5035614;28;20029;-76
2021/12/16 00:45:02;;;;;;;35.78;20.25;;;4.50;99.90;;;;;;5053365;28;20067;-73
2021/12/16 00:49:49;;;;;;;35.28;20.48;;;4.40;99.90;;;;;;5052047;28;20429;-76
2021/12/16 00:55:24;;;;;;;35.47;20.45;;;4.50;99.90;;;;;;5053681;28;20041;-77
2021/12/16 00:57:53;;;;;;;35.55;20.88;;;4.50;99.90;;;;;;5035113;28;20044;-77
2021/12/16 01:00:24;;;;;;;31.27;20.00;;;4.40;99.90;;;;;;5052090;28;20423;-74
2021/12/16 01:03:09;;;;;;;40.33;22.42;;;4.40;99.90;;;;;;5034510;28;20037;-77
2021/12/16 01:08:40;;;;;;;39.78;22.98;;;4.30;99.90;;;;;;5052664;28;20111;-78
2021/12/16 01:47:40;;;;;;;35.33;21.30;;;4.30;99.90;;;;;;5052110;28;20037;-75
2021/12/16 01:50:19;;;;;;;37.85;20.80;;;4.30;99.90;;;;;;5052004;28;20485;-73
2021/12/16 01:55:30;;;;;;;35.70;20.15;;;4.30;99.90;;;;;;5034256;28;20032;-74
2021/12/16 01:58:09;;;;;;;34.78;20.13;;;4.30;99.90;;;;;;5051974;28;20033;-74
2021/12/16 02:01:08;;;;;;;35.45;21.23;;;4.30;99.90;;;;;;5071813;28;20036;-76
2021/12/16 02:03:42;;;;;;;34.33;20.13;;;4.40;99.90;;;;;;5071561;28;20047;-75
2021/12/16 02:07:10;;;;;;;35.53;21.58;;;4.40;99.90;;;;;;5037912;28;20123;-75
2021/12/16 02:09:27;;;;;;;37.65;21.08;;;4.40;99.90;;;;;;5046022;28;20052;-76
2021/12/16 02:12:07;;;;;;;37.38;22.33;;;4.40;99.90;;;;;;5070426;28;20032;-76
2021/12/16 02:36:42;;;;;;;33.25;20.67;;;4.30;99.90;;;;;;5053703;28;20424;-74
2021/12/16 02:39:11;;;;;;;35.40;21.25;;;4.30;99.90;;;;;;5053575;28;20048;-78
2021/12/16 02:41:43;;;;;;;36.40;21.65;;;4.20;99.90;;;;;;5053649;28;20044;-76
2021/12/16 02:49:47;;;;;;;35.20;21.10;;;4.20;99.90;;;;;;5071038;28;20037;-76
2021/12/16 02:52:17;;;;;;;36.97;22.10;;;4.30;99.90;;;;;;5053021;28;20051;-75
2021/12/16 02:54:45;;;;;;;44.38;23.15;;;4.30;99.90;;;;;;5053503;28;20048;-77
2021/12/16 02:57:13;;;;;;;39.25;22.27;;;4.30;99.90;;;;;;5070953;28;20037;-79
2021/12/16 02:59:41;;;;;;;37.13;22.27;;;4.20;99.90;;;;;;5058232;28;20063;-78
2021/12/16 03:02:13;;;;;;;40.63;22.42;;;4.20;99.90;;;;;;5033710;28;20041;-78
2021/12/16 03:04:42;;;;;;;35.72;23.73;;;4.20;99.90;;;;;;5051202;28;20037;-78
2021/12/16 03:07:12;;;;;;;39.50;22.58;;;4.10;99.90;;;;;;5033230;28;20369;-77
2021/12/16 03:15:06;;;;;;;35.72;22.33;;;4.00;99.90;;;;;;5050866;28;20041;-76
2021/12/16 03:17:47;;;;;;;35.95;21.20;;;4.00;99.90;;;;;;5033089;28;20052;-74
2021/12/16 03:20:38;;;;;;;39.42;21.20;;;3.80;99.90;;;;;;5033587;28;20032;-75
2021/12/16 03:31:41;;;;;;;35.50;21.02;;;3.70;99.90;;;;;;5036860;28;20476;-76
2021/12/16 03:37:15;;;;;;;37.63;21.50;;;3.70;99.90;;;;;;5054752;28;20029;-77
2021/12/16 03:39:45;;;;;;;34.08;21.17;;;3.70;99.90;;;;;;5037069;28;20071;-77
2021/12/16 03:42:16;;;;;;;35.75;21.58;;;3.70;99.90;;;;;;5036604;28;20037;-76
2021/12/16 03:44:56;;;;;;;33.72;19.98;;;3.70;99.90;;;;;;5054466;28;20384;-77
2021/12/16 03:47:46;;;;;;;34.63;19.77;;;3.70;99.90;;;;;;5054602;28;20029;-75
2021/12/16 03:50:20;;;;;;;29.75;19.70;;;3.70;99.90;;;;;;5036347;28;20053;-79
2021/12/16 03:52:48;;;;;;;32.20;20.13;;;3.70;99.90;;;;;;5036670;28;20047;-75
2021/12/16 03:55:17;;;;;;;34.15;20.30;;;3.70;99.90;;;;;;5036752;28;20041;-79
2021/12/16 03:57:45;;;;;;;35.20;21.40;;;3.80;99.90;;;;;;5036726;28;20045;-76
2021/12/16 04:00:25;;;;;;;33.35;20.58;;;3.80;99.90;;;;;;5016845;28;20042;-77
2021/12/16 04:02:54;;;;;;;34.65;20.23;;;3.70;99.90;;;;;;5034195;28;20037;-75
2021/12/16 04:05:25;;;;;;;33.65;20.08;;;3.60;99.90;;;;;;5016868;28;20048;-78
2021/12/16 04:07:53;;;;;;;36.55;20.50;;;3.50;99.90;;;;;;5033986;28;20040;-77
2021/12/16 04:10:33;;;;;;;31.55;19.40;;;3.70;99.90;;;;;;5016188;28;20045;-75
2021/12/16 04:13:04;;;;;;;38.58;21.55;;;3.70;99.90;;;;;;5033946;28;20037;-76
2021/12/16 04:15:33;;;;;;;39.72;21.70;;;3.80;99.90;;;;;;5025210;28;20598;-77
2021/12/16 04:18:01;;;;;;;33.80;21.75;;;3.70;99.90;;;;;;5053677;28;20055;-77
2021/12/16 04:20:28;;;;;;;38.15;22.40;;;3.60;99.90;;;;;;5035994;28;20039;-76
2021/12/16 04:22:57;;;;;;;38.63;23.05;;;3.40;99.90;;;;;;5053749;28;20560;-78
2021/12/16 04:25:31;;;;;;;37.75;22.23;;;3.20;99.90;;;;;;5036209;28;20068;-76
2021/12/16 04:28:01;;;;;;;36.50;21.65;;;3.20;99.90;;;;;;5053534;28;20041;-78
2021/12/16 04:30:30;;;;;;;;;;;3.30;99.90;;;;;;5036753;28;20033;-75
2021/12/16 04:32:57;;;;;;;33.50;20.02;;;3.40;99.90;;;;;;5052318;28;19935;-78
2021/12/16 04:35:27;;;;;;;30.85;18.88;;;3.50;99.90;;;;;;5053557;28;20047;-76
2021/12/16 04:37:55;;;;;;;30.70;18.90;;;3.50;99.90;;;;;;5034652;28;20041;-76
2021/12/16 04:40:23;;;;;;;32.17;19.55;;;3.60;99.90;;;;;;5035747;28;20136;-78
2021/12/16 04:42:52;;;;;;;35.30;20.83;;;3.50;99.90;;;;;;5035630;28;20095;-77
2021/12/16 04:45:20;;;;;;;38.63;21.52;;;3.50;99.90;;;;;;5053347;28;20037;-78
2021/12/16 04:47:48;;;;;;;35.08;21.10;;;3.50;99.90;;;;;;5035281;28;20472;-77
2021/12/16 04:50:17;;;;;;;37.60;21.45;;;3.50;99.90;;;;;;5053454;28;20048;-78
2021/12/16 04:52:47;;;;;;;37.85;23.25;;;3.60;99.90;;;;;;5019194;28;20045;-77
2021/12/16 04:55:19;;;;;;;34.05;20.00;;;3.60;99.90;;;;;;5035702;28;20037;-76
2021/12/16 04:57:50;;;;;;;33.35;20.35;;;3.50;99.90;;;;;;5053343;28;20479;-75
2021/12/16 05:00:21;;;;;;;40.47;22.33;;;3.60;99.90;;;;;;5067217;28;20039;-77
2021/12/16 05:02:49;;;;;;;35.30;21.52;;;3.60;99.90;;;;;;5072902;28;20051;-77
2021/12/16 05:05:17;;;;;;;41.13;22.38;;;3.60;99.90;;;;;;5073235;28;20094;-78
2021/12/16 05:07:47;;;;;;;33.35;21.58;;;3.40;99.90;;;;;;5072791;28;20043;-78
2021/12/16 05:10:16;;;;;;;35.28;22.00;;;3.40;99.90;;;;;;5073503;28;20041;-76
2021/12/16 05:12:47;;;;;;;37.90;20.52;;;3.40;99.90;;;;;;5072954;28;20039;-75
2021/12/16 05:15:19;;;;;;;39.90;20.17;;;3.50;99.90;;;;;;5072296;28;20052;-75
2021/12/16 05:17:50;;;;;;;33.13;20.38;;;3.50;99.90;;;;;;5072891;28;20044;-75
2021/12/16 05:20:22;;;;;;;33.50;19.45;;;3.50;99.90;;;;;;5055088;28;20043;-76
2021/12/16 05:28:17;;;;;;;32.10;19.40;;;3.60;99.90;;;;;;5054440;28;20045;-76
2021/12/16 05:30:48;;;;;;;35.55;20.35;;;3.60;99.90;;;;;;5054884;28;20036;-73
2021/12/16 05:33:16;;;;;;;31.83;18.65;;;3.50;99.90;;;;;;5072270;28;20439;-77
2021/12/16 05:35:53;;;;;;;33.35;18.90;;;3.40;99.90;;;;;;5055804;28;20380;-74
2021/12/16 05:38:20;;;;;;;29.77;19.10;;;3.50;99.90;;;;;;5054354;28;20383;-74
2021/12/16 05:40:48;;;;;;;30.40;17.83;;;3.60;99.90;;;;;;5072316;28;20111;-75
2021/12/16 05:43:18;;;;;;;32.90;20.02;;;3.60;99.90;;;;;;5072240;28;20038;-77
2021/12/16 05:45:46;;;;;;;30.38;18.92;;;3.70;99.90;;;;;;5054116;28;20048;-77
2021/12/16 05:48:16;;;;;;;29.65;18.02;;;3.70;99.90;;;;;;5037972;28;20043;-79
2021/12/16 05:50:52;;;;;;;34.85;19.95;;;3.70;99.90;;;;;;5054345;28;20048;-77
2021/12/16 05:53:21;;;;;;;60.20;34.17;;;3.70;99.90;;;;;;5054302;28;20041;-75
2021/12/16 05:55:50;;;;;;;164.10;81.25;;;3.70;99.90;;;;;;5054692;28;20041;-78
2021/12/16 05:58:19;;;;;;;39.45;25.00;;;3.80;99.90;;;;;;5054010;28;20041;-78
2021/12/16 06:00:51;;;;;;;36.13;22.05;;;3.60;99.90;;;;;;5035092;28;20053;-78
2021/12/16 06:03:19;;;;;;;32.78;20.50;;;3.70;99.90;;;;;;4998239;28;20092;-79
2021/12/16 06:05:46;;;;;;;47.20;26.90;;;3.50;99.90;;;;;;5030097;28;20469;-78
2021/12/16 06:08:14;;;;;;;43.53;24.35;;;3.60;99.90;;;;;;5031774;28;20052;-82
2021/12/16 06:13:36;;;;;;;37.97;22.10;;;3.50;99.90;;;;;;5031445;28;20396;-73
2021/12/16 06:27:08;;;;;;;35.25;21.50;;;3.80;99.90;;;;;;5033214;28;20041;-74
2021/12/16 06:29:37;;;;;;;38.22;22.08;;;3.90;99.90;;;;;;5033589;28;20055;-74
2021/12/16 06:32:05;;;;;;;37.72;21.25;;;3.90;99.90;;;;;;5050839;28;20045;-74
2021/12/16 06:34:33;;;;;;;31.90;19.67;;;3.70;99.90;;;;;;5033592;28;20037;-77
2021/12/16 06:37:00;;;;;;;38.20;21.42;;;3.70;99.90;;;;;;5033326;28;20392;-72
2021/12/16 06:39:28;;;;;;;39.22;21.25;;;4.00;99.90;;;;;;5051300;28;20120;-77
2021/12/16 06:41:56;;;;;;;39.55;22.95;;;4.00;99.90;;;;;;5033602;28;20049;-78
2021/12/16 06:44:28;;;;;;;32.60;22.48;;;4.10;99.90;;;;;;5033994;28;20147;-74
2021/12/16 06:47:03;;;;;;;170.52;85.30;;;4.10;99.90;;;;;;5050717;28;20044;-77
2021/12/16 06:49:32;;;;;;;151.60;75.35;;;4.30;99.90;;;;;;5051049;28;20033;-74
2021/12/16 06:52:03;;;;;;;66.43;38.92;;;4.40;99.90;;;;;;5049780;28;20029;-76
2021/12/16 06:59:52;;;;;;;57.45;33.13;;;4.30;99.90;;;;;;5055653;28;20041;-77
2021/12/16 07:05:05;;;;;;;50.20;29.80;;;4.20;99.90;;;;;;5037069;28;20499;-76
2021/12/16 07:07:33;;;;;;;43.85;27.83;;;4.20;99.90;;;;;;5021133;28;20044;-76
2021/12/16 07:10:00;;;;;;;47.13;27.50;;;4.30;99.90;;;;;;5055312;28;20059;-77
2021/12/16 07:12:35;;;;;;;44.63;26.45;;;4.30;99.90;;;;;;5037068;28;20037;-76
2021/12/16 07:15:10;;;;;;;44.95;24.48;;;4.30;99.90;;;;;;5037254;28;20048;-76
2021/12/16 07:17:39;;;;;;;37.80;23.50;;;4.30;99.90;;;;;;5053587;28;20049;-77
2021/12/16 07:20:10;;;;;;;41.90;23.25;;;4.40;99.90;;;;;;5019860;28;20495;-77
2021/12/16 07:22:37;;;;;;;45.30;24.63;;;4.30;99.90;;;;;;5020113;28;20065;-78
2021/12/16 07:25:08;;;;;;;37.30;23.25;;;4.50;99.90;;;;;;5053567;28;20032;-74
2021/12/16 07:27:36;;;;;;;41.55;24.58;;;4.50;99.90;;;;;;5035352;28;20196;-76
2021/12/16 07:30:07;;;;;;;45.28;23.80;;;4.50;99.90;;;;;;5052940;28;20102;-78
2021/12/16 07:32:35;;;;;;;40.50;22.13;;;4.60;99.90;;;;;;5035684;28;20493;-78
2021/12/16 07:35:09;;;;;;;48.40;23.50;;;4.70;99.90;;;;;;5036188;28;20148;-78
2021/12/16 07:37:39;;;;;;;41.40;23.67;;;4.70;99.90;;;;;;5036528;28;20610;-75
2021/12/16 07:40:10;;;;;;;39.42;23.15;;;4.80;99.90;;;;;;5037178;28;20053;-77
2021/12/16 07:43:00;;;;;;;36.90;22.15;;;4.90;99.90;;;;;;5019939;28;20484;-74
2021/12/16 07:45:28;;;;;;;39.47;22.88;;;5.10;99.90;;;;;;5037051;28;20041;-78
2021/12/16 07:47:55;;;;;;;46.13;22.90;;;5.00;99.90;;;;;;5052983;28;20164;-77
2021/12/16 07:50:24;;;;;;;40.80;23.60;;;5.10;99.90;;;;;;5036635;28;20037;-75
2021/12/16 07:52:52;;;;;;;40.55;21.38;;;5.10;99.90;;;;;;5054170;28;20404;-77
2021/12/16 07:55:20;;;;;;;42.17;24.20;;;5.10;99.90;;;;;;5054238;28;20029;-77
2021/12/16 07:57:48;;;;;;;50.20;24.98;;;5.10;99.90;;;;;;5053961;28;20051;-77
2021/12/16 08:00:23;;;;;;;42.70;23.38;;;5.10;99.90;;;;;;5044452;28;20216;-75
2021/12/16 08:02:51;;;;;;;38.25;23.02;;;5.30;99.90;;;;;;5073508;28;20044;-77
2021/12/16 08:05:21;;;;;;;43.67;23.08;;;5.30;99.90;;;;;;5039890;28;20063;-77
2021/12/16 08:07:49;;;;;;;39.38;21.45;;;5.20;99.90;;;;;;5055547;28;20045;-77
2021/12/16 08:10:20;;;;;;;38.20;22.10;;;5.20;99.90;;;;;;5056720;28;20037;-76
2021/12/16 08:12:47;;;;;;;35.30;22.65;;;5.20;99.90;;;;;;5072630;28;20403;-77
2021/12/16 08:15:18;;;;;;;42.30;21.70;;;5.20;99.90;;;;;;5039466;28;20045;-78
2021/12/16 08:17:45;;;;;;;;;;;5.30;99.90;;;;;;5074080;28;20076;-77
2021/12/16 08:20:18;;;;;;;35.20;22.33;;;5.30;99.90;;;;;;5055926;28;19948;-76
2021/12/16 08:22:47;;;;;;;39.97;22.20;;;5.30;99.90;;;;;;5055780;28;20056;-77
2021/12/16 08:25:19;;;;;;;38.53;21.85;;;5.30;99.90;;;;;;5074416;28;20037;-77
2021/12/16 08:27:48;;;;;;;45.70;21.77;;;5.40;99.90;;;;;;5073526;28;20050;-76
2021/12/16 08:30:18;;;;;;;32.05;19.63;;;5.40;99.90;;;;;;5073748;28;20120;-74
2021/12/16 08:32:46;;;;;;;38.70;20.92;;;5.50;99.90;;;;;;5039009;28;20048;-77
2021/12/16 08:35:13;;;;;;;36.20;21.08;;;5.50;99.90;;;;;;5039325;28;20037;-77
2021/12/16 08:37:41;;;;;;;43.92;22.58;;;5.70;99.90;;;;;;5055451;28;20052;-75
2021/12/16 08:40:14;;;;;;;47.08;22.50;;;5.60;99.90;;;;;;5065363;28;20374;-76
2021/12/16 08:42:43;;;;;;;41.22;23.25;;;5.60;99.90;;;;;;5054487;28;20585;-75
2021/12/16 08:45:14;;;;;;;40.08;23.98;;;5.60;99.90;;;;;;5072991;28;20039;-74
2021/12/16 08:47:41;;;;;;;44.55;24.70;;;5.60;99.90;;;;;;5072433;28;20119;-75
2021/12/16 08:50:12;;;;;;;42.25;26.63;;;5.70;99.90;;;;;;5054404;28;20377;-76
2021/12/16 08:52:39;;;;;;;45.58;26.35;;;5.70;99.90;;;;;;5072558;28;20028;-77
2021/12/16 08:55:09;;;;;;;44.45;26.65;;;5.70;99.90;;;;;;5055218;28;20055;-75
2021/12/16 08:57:37;;;;;;;41.55;24.05;;;5.80;99.90;;;;;;5071666;28;20048;-76
2021/12/16 09:00:09;;;;;;;43.03;25.70;;;5.90;99.90;;;;;;5054917;28;20055;-77
2021/12/16 09:02:37;;;;;;;44.08;25.85;;;6.00;99.90;;;;;;5072800;28;20033;-77
2021/12/16 09:05:05;;;;;;;43.63;26.10;;;5.90;99.90;;;;;;5072857;28;20040;-75
2021/12/16 09:07:32;;;;;;;57.17;32.15;;;6.00;99.90;;;;;;5072499;28;20060;-76
2021/12/16 09:10:00;;;;;;;55.70;33.22;;;5.90;99.90;;;;;;5071967;28;20361;-76
2021/12/16 09:14:59;;;;;;;61.50;34.33;;;5.80;99.90;;;;;;5068017;28;20076;-82
2021/12/16 09:17:26;;;;;;;58.17;32.47;;;5.80;99.90;;;;;;5034817;28;20041;-78
2021/12/16 09:19:55;;;;;;;56.50;31.95;;;5.80;99.90;;;;;;5051940;28;20116;-76
2021/12/16 09:22:24;;;;;;;59.15;32.97;;;6.10;99.90;;;;;;5034750;28;20037;-78
2021/12/16 09:24:53;;;;;;;55.10;31.95;;;6.00;99.90;;;;;;5034673;28;20076;-76
2021/12/16 09:27:20;;;;;;;55.45;32.03;;;5.90;99.90;;;;;;5032969;28;20392;-74
2021/12/16 09:29:48;;;;;;;56.55;31.23;;;5.90;99.90;;;;;;5051930;28;20120;-78
2021/12/16 09:32:16;;;;;;;56.72;33.03;;;6.00;99.90;;;;;;5052413;28;20041;-77
2021/12/16 09:34:45;;;;;;;50.22;31.60;;;6.10;99.90;;;;;;5034456;28;20439;-77
2021/12/16 09:37:13;;;;;;;57.95;30.00;;;6.10;99.90;;;;;;5052391;28;20037;-76
2021/12/16 09:39:48;;;;;;;53.05;30.23;;;6.10;99.90;;;;;;5034604;28;20109;-76
2021/12/16 09:42:15;;;;;;;55.13;30.75;;;6.00;99.90;;;;;;5057629;28;20357;-76
2021/12/16 09:44:43;;;;;;;50.47;29.65;;;6.00;99.90;;;;;;5040924;28;20041;-77
2021/12/16 09:47:12;;;;;;;43.78;26.60;;;6.00;99.90;;;;;;5044496;28;20051;-74
2021/12/16 09:49:41;;;;;;;44.58;25.10;;;5.90;99.90;;;;;;5044876;28;20063;-77
2021/12/16 09:52:11;;;;;;;39.47;23.80;;;5.80;99.90;;;;;;5021746;28;20052;-76
2021/12/16 09:54:41;;;;;;;44.63;24.67;;;5.80;99.90;;;;;;5061787;28;20036;-77
2021/12/16 09:57:12;;;;;;;38.83;23.88;;;5.80;99.90;;;;;;5055778;28;20051;-74
2021/12/16 09:59:43;;;;;;;46.33;24.30;;;5.90;99.90;;;;;;5034269;28;20439;-76
2021/12/16 10:02:14;;;;;;;44.30;23.25;;;5.90;99.90;;;;;;5032159;28;20124;-76
2021/12/16 10:04:43;;;;;;;43.05;24.38;;;6.00;99.90;;;;;;5030570;28;20165;-75
2021/12/16 10:07:20;;;;;;;41.10;24.70;;;6.00;99.90;;;;;;5014471;28;20096;-78
2021/12/16 10:09:49;;;;;;;47.38;24.92;;;6.00;99.90;;;;;;5030875;28;20075;-76
2021/12/16 10:12:21;;;;;;;43.50;25.67;;;6.00;99.90;;;;;;5031696;28;20041;-79
2021/12/16 10:17:40;;;;;;;42.58;26.73;;;5.90;99.90;;;;;;5051723;28;20037;-77
2021/12/16 10:20:16;;;;;;;48.70;27.08;;;5.80;99.90;;;;;;5043646;28;21035;-77
2021/12/16 10:22:45;;;;;;;40.75;24.73;;;5.80;99.90;;;;;;5066211;28;20036;-77
2021/12/16 10:25:26;;;;;;;40.17;24.30;;;5.90;99.90;;;;;;5071476;28;20124;-77
2021/12/16 10:27:56;;;;;;;;;;;5.90;99.90;;;;;;5071598;28;20357;-77
2021/12/16 10:30:25;;;;;;;23.92;15.00;;;6.20;99.90;;;;;;5070934;28;20378;-78
2021/12/16 10:32:53;;;;;;;22.15;15.65;;;6.30;99.90;;;;;;5071178;28;20035;-79
2021/12/16 10:35:32;;;;;;;31.65;17.05;;;6.30;99.90;;;;;;5052461;28;20196;-75
2021/12/16 10:38:03;;;;;;;28.27;17.13;;;6.30;99.90;;;;;;5053549;28;20067;-73
2021/12/16 10:40:46;;;;;;;23.30;15.60;;;6.50;99.90;;;;;;5070913;28;20446;-75
2021/12/16 10:43:31;;;;;;;22.23;12.43;;;6.50;99.90;;;;;;5071178;28;20458;-73
2021/12/16 10:46:08;;;;;;;18.85;12.02;;;6.50;99.90;;;;;;5071091;28;20668;-77
2021/12/16 10:48:41;;;;;;;17.60;10.90;;;6.50;99.90;;;;;;5046091;28;20362;-78
2021/12/16 10:51:23;;;;;;;15.38;10.40;;;6.70;99.90;;;;;;5069771;28;20398;-76
2021/12/16 10:53:56;;;;;;;16.83;10.35;;;6.80;99.90;;;;;;5031366;28;20036;-76
2021/12/16 10:56:32;;;;;;;14.30;8.80;;;6.90;99.90;;;;;;5052844;28;20068;-75
2021/12/16 10:59:11;;;;;;;14.10;8.18;;;6.90;99.90;;;;;;5052766;28;20082;-76
2021/12/16 11:01:51;;;;;;;18.05;8.07;;;6.90;99.90;;;;;;5044985;28;20028;-75
2021/12/16 11:04:37;;;;;;;11.70;8.00;;;7.00;99.90;;;;;;5070694;28;20039;-75
2021/12/16 11:07:07;;;;;;;12.85;7.88;;;7.00;99.90;;;;;;5070694;28;20048;-74
2021/12/16 11:09:42;;;;;;;13.68;7.70;;;6.90;99.90;;;;;;5053356;28;20036;-76
2021/12/16 11:12:24;;;;;;;12.20;7.70;;;7.00;99.90;;;;;;5070592;28;20118;-76
2021/12/16 11:15:20;;;;;;;14.55;7.95;;;7.10;99.90;;;;;;5052549;28;20056;-74
2021/12/16 11:18:07;;;;;;;12.27;7.45;;;7.10;99.90;;;;;;5050449;28;20055;-74
2021/12/16 11:20:48;;;;;;;18.00;9.80;;;7.10;99.90;;;;;;5070550;28;20104;-72
2021/12/16 11:23:17;;;;;;;;;;;7.00;99.90;;;;;;5053454;28;20049;-74
2021/12/16 11:25:51;;;;;;;12.05;6.47;;;6.90;99.90;;;;;;5070620;28;19920;-74
2021/12/16 11:28:18;;;;;;;8.23;5.97;;;7.00;99.90;;;;;;5070601;28;20047;-76
2021/12/16 11:30:55;;;;;;;9.70;5.93;;;7.00;99.90;;;;;;5052841;28;20460;-77
2021/12/16 11:33:43;;;;;;;10.02;6.25;;;7.00;99.90;;;;;;5070262;28;20072;-74
2021/12/16 11:36:14;;;;;;;12.32;6.18;;;6.90;99.90;;;;;;5070451;28;20050;-75
2021/12/16 11:38:44;;;;;;;6.68;5.60;;;6.90;99.90;;;;;;5059275;28;20038;-76
2021/12/16 11:41:38;;;;;;;8.90;6.28;;;6.80;99.90;;;;;;5056106;28;20564;-78
2021/12/16 11:44:16;;;;;;;8.70;6.25;;;6.80;99.90;;;;;;5072936;28;20036;-77
2021/12/16 11:46:53;;;;;;;9.13;6.00;;;6.80;99.90;;;;;;5073722;28;20129;-76
2021/12/16 11:49:23;;;;;;;6.93;5.57;;;6.80;99.90;;;;;;5076900;28;20032;-76
2021/12/16 11:52:05;;;;;;;11.20;5.20;;;6.90;99.90;;;;;;5076674;28;20426;-75
2021/12/16 11:54:53;;;;;;;10.88;5.82;;;7.00;99.90;;;;;;5076367;28;20378;-76
2021/12/16 11:57:24;;;;;;;10.13;6.30;;;7.00;99.90;;;;;;5094202;28;20040;-77
2021/12/16 12:00:06;;;;;;;10.65;6.40;;;6.80;99.90;;;;;;5094662;28;20442;-77
2021/12/16 12:02:54;;;;;;;9.32;5.85;;;6.70;99.90;;;;;;5032718;28;20075;-76
2021/12/16 12:05:34;;;;;;;9.52;5.80;;;6.70;99.90;;;;;;5043818;28;20432;-77
2021/12/16 12:08:10;;;;;;;8.77;5.68;;;6.80;99.90;;;;;;5036099;28;20428;-78
2021/12/16 12:10:50;;;;;;;9.07;6.43;;;6.70;99.90;;;;;;5054116;28;20040;-77
2021/12/16 12:13:29;;;;;;;12.02;6.28;;;6.70;99.90;;;;;;5053528;28;20396;-76
2021/12/16 12:16:13;;;;;;;9.60;6.80;;;6.70;99.90;;;;;;5052244;28;20045;-77
2021/12/16 12:18:53;;;;;;;8.95;6.45;;;6.70;99.90;;;;;;5052361;28;20043;-77
2021/12/16 12:21:26;;;;;;;9.93;6.33;;;6.70;99.90;;;;;;5050555;28;20682;-77
2021/12/16 12:24:01;;;;;;;10.85;7.25;;;6.80;99.90;;;;;;5032456;28;20049;-77
2021/12/16 12:26:31;;;;;;;11.80;6.57;;;6.90;99.90;;;;;;5049015;28;20033;-77
2021/12/16 12:29:04;;;;;;;12.90;6.95;;;6.90;99.90;;;;;;5033262;28;20127;-75
2021/12/16 12:31:35;;;;;;;7.72;5.97;;;6.90;99.90;;;;;;5051934;28;20052;-76
2021/12/16 12:34:03;;;;;;;10.50;7.18;;;7.00;99.90;;;;;;5052384;28;20033;-76
2021/12/16 12:36:30;;;;;;;9.98;7.30;;;7.00;99.90;;;;;;5035244;28;20527;-75
2021/12/16 12:39:00;;;;;;;13.35;9.00;;;7.00;99.90;;;;;;5053252;28;20060;-75
2021/12/16 12:41:27;;;;;;;26.63;13.45;;;7.00;99.90;;;;;;5052245;28;20135;-75
2021/12/16 12:43:57;;;;;;;27.08;15.85;;;7.00;99.90;;;;;;5035888;28;20041;-74
2021/12/16 12:46:26;;;;;;;23.50;15.82;;;7.00;99.90;;;;;;5053453;28;20483;-77
2021/12/16 12:48:55;;;;;;;19.60;12.35;;;6.90;99.90;;;;;;5052999;28;20461;-79
2021/12/16 12:51:45;;;;;;;21.02;12.40;;;6.90;99.90;;;;;;5035338;28;20531;-77
2021/12/16 12:54:15;;;;;;;;;;;7.00;99.90;;;;;;5035856;28;20037;-77
2021/12/16 12:56:43;;;;;;;22.48;12.85;;;7.00;99.90;;;;;;5035491;28;19917;-77
2021/12/16 12:59:15;;;;;;;24.67;11.10;;;7.00;99.90;;;;;;5052580;28;20091;-75
2021/12/16 13:01:55;;;;;;;17.20;11.85;;;7.00;99.90;;;;;;5043171;28;20153;-77
2021/12/16 13:04:25;;;;;;;12.43;8.70;;;7.10;99.90;;;;;;5035805;28;20419;-78
2021/12/16 13:07:13;;;;;;;9.25;7.20;;;7.20;99.90;;;;;;5052582;28;20045;-75
2021/12/16 13:09:54;;;;;;;10.55;6.70;;;7.20;99.90;;;;;;5032288;28;20381;-78
2021/12/16 13:12:25;;;;;;;8.85;6.13;;;7.40;99.90;;;;;;5031513;28;20041;-76
2021/12/16 13:15:02;;;;;;;;;;;7.50;99.90;;;;;;5032093;28;20045;-77
2021/12/16 13:31:45;;;;;;;10.88;5.82;;;7.70;99.90;;;;;;5034604;28;20037;-74
2021/12/16 13:34:29;;;;;;;9.70;5.68;;;7.80;99.90;;;;;;5034701;28;20045;-75
2021/12/16 13:36:58;;;;;;;8.93;6.70;;;7.70;98.80;;;;;;5051911;28;20419;-75
2021/12/16 13:39:29;;;;;;;11.73;6.82;;;7.30;99.90;;;;;;5034918;28;20075;-76
2021/12/16 13:42:12;;;;;;;12.05;7.10;;;7.30;99.90;;;;;;5051951;28;20029;-74
2021/12/16 13:45:16;;;;;;;11.82;7.28;;;7.40;99.90;;;;;;5034591;28;20364;-76
2021/12/16 14:03:03;;;;;;;9.30;6.70;;;7.30;99.90;;;;;;4990571;28;20076;-76
2021/12/16 14:08:57;;;;;;;12.75;6.57;;;7.10;99.90;;;;;;5054010;28;20053;-77
2021/12/16 14:17:52;;;;;;;8.80;6.75;;;7.80;99.70;;;;;;5053462;28;20479;-80
2021/12/16 14:23:46;;;;;;;9.57;5.88;;;7.10;99.90;;;;;;5053556;28;20072;-83
2021/12/16 14:50:32;;;;;;;10.18;6.70;;;7.00;99.90;;;;;;5053672;28;20041;-78
2021/12/16 14:53:10;;;;;;;10.50;6.70;;;6.80;99.90;;;;;;5051632;28;20510;-77
2021/12/16 14:55:38;;;;;;;12.63;7.32;;;6.80;99.90;;;;;;5069229;28;20127;-77
2021/12/16 14:58:05;;;;;;;8.93;6.75;;;6.80;99.90;;;;;;5051166;28;20033;-77
2021/12/16 15:00:41;;;;;;;10.57;6.50;;;6.80;99.90;;;;;;5051589;28;20055;-77
2021/12/16 15:03:15;;;;;;;7.68;5.90;;;6.80;99.90;;;;;;5088820;28;20032;-77
2021/12/16 15:05:46;;;;;;;8.07;6.43;;;6.90;99.90;;;;;;5071266;28;20391;-77
2021/12/16 15:08:33;;;;;;;7.80;5.90;;;6.80;99.90;;;;;;5090862;28;20051;-77
2021/12/16 15:11:04;;;;;;;10.68;6.10;;;6.80;99.90;;;;;;5091461;28;20125;-77
2021/12/16 15:13:44;;;;;;;6.85;5.55;;;6.70;99.90;;;;;;5091215;28;20138;-77
2021/12/16 15:43:51;;;;;;;9.13;6.30;;;6.90;99.90;;;;;;5094472;28;20036;-76
2021/12/16 15:46:19;;;;;;;10.88;6.10;;;6.90;99.90;;;;;;5094517;28;20517;-77
2021/12/16 15:48:49;;;;;;;14.05;6.50;;;6.90;99.90;;;;;;5094445;28;20036;-76
2021/12/16 15:51:20;;;;;;;8.43;6.28;;;6.90;99.90;;;;;;5094900;28;20043;-78
2021/12/16 15:53:51;;;;;;;;;;;7.00;99.90;;;;;;5076844;28;20061;-77
2021/12/16 15:56:23;;;;;;;20.15;10.57;;;6.90;99.90;;;;;;5094332;28;20003;-77
2021/12/16 15:58:56;;;;;;;18.13;11.90;;;6.80;99.90;;;;;;5059978;28;20048;-77
2021/12/16 16:01:25;;;;;;;19.33;12.23;;;6.80;99.90;;;;;;5072876;28;20507;-77
2021/12/16 16:03:53;;;;;;;19.73;11.25;;;6.70;99.90;;;;;;5056298;28;20387;-75
2021/12/16 16:06:21;;;;;;;16.17;11.18;;;6.60;99.90;;;;;;5074232;28;20040;-76
2021/12/16 16:08:52;;;;;;;17.95;11.52;;;6.60;99.90;;;;;;5074096;28;20036;-77
2021/12/16 16:11:32;;;;;;;22.58;14.88;;;6.60;99.90;;;;;;5056652;28;20132;-76
2021/12/16 16:14:04;;;;;;;25.50;17.30;;;6.60;99.90;;;;;;5073722;28;20050;-77
2021/12/16 16:16:41;;;;;;;25.08;16.73;;;6.50;99.90;;;;;;5073895;28;20040;-78
2021/12/16 16:19:09;;;;;;;25.70;15.80;;;6.30;99.90;;;;;;5074016;28;20025;-78
2021/12/16 16:21:46;;;;;;;20.83;13.00;;;6.40;99.90;;;;;;5056192;28;20183;-76
2021/12/16 16:24:27;;;;;;;20.20;13.27;;;6.50;99.90;;;;;;5056135;28;20062;-78
2021/12/16 16:26:55;;;;;;;25.10;14.38;;;6.50;99.90;;;;;;5071562;28;20059;-75
2021/12/16 16:29:26;;;;;;;22.55;12.95;;;6.30;99.90;;;;;;5072902;28;20041;-77
2021/12/16 16:31:55;;;;;;;15.30;10.50;;;6.30;99.90;;;;;;5073633;28;20036;-77
2021/12/16 16:34:30;;;;;;;14.95;9.27;;;6.50;99.90;;;;;;5072686;28;20040;-77
2021/12/16 16:37:02;;;;;;;16.88;9.35;;;6.60;99.90;;;;;;5073405;28;20040;-75
2021/12/16 16:39:33;;;;;;;91.47;46.28;;;6.50;99.90;;;;;;5056032;28;20032;-73
2021/12/16 16:42:07;;;;;;;136.43;71.65;;;6.80;99.90;;;;;;5055551;28;20500;-74
2021/12/16 16:44:35;;;;;;;301.77;137.18;;;6.90;99.90;;;;;;5056139;28;20040;-74
2021/12/16 16:47:14;;;;;;;53.97;32.83;;;6.90;99.90;;;;;;5055664;28;20033;-75
2021/12/16 16:49:48;;;;;;;143.10;76.43;;;7.10;99.90;;;;;;5073169;28;20493;-74
2021/12/16 16:52:20;;;;;;;25.52;18.88;;;7.10;99.90;;;;;;5055742;28;20044;-77
2021/12/16 16:55:07;;;;;;;17.38;10.57;;;7.20;99.90;;;;;;5055938;28;20408;-75
2021/12/16 16:57:37;;;;;;;14.02;8.93;;;7.00;99.90;;;;;;5055139;28;20048;-75
2021/12/16 17:00:23;;;;;;;15.63;9.80;;;7.00;99.90;;;;;;5055470;28;20063;-78
2021/12/16 17:03:04;;;;;;;16.50;10.75;;;6.90;99.90;;;;;;5086637;28;20287;-77
2021/12/16 17:05:33;;;;;;;16.77;11.35;;;6.80;99.90;;;;;;5093436;28;20134;-77
2021/12/16 17:08:05;;;;;;;19.77;11.18;;;6.80;99.90;;;;;;5093267;28;20390;-77
2021/12/16 17:10:40;;;;;;;21.08;12.20;;;6.80;99.90;;;;;;5071149;28;20033;-77
2021/12/16 17:13:34;;;;;;;26.15;15.40;;;6.80;99.90;;;;;;5054618;28;20048;-80
2021/12/16 17:18:37;;;;;;;32.15;17.55;;;6.70;99.90;;;;;;5072542;28;20062;-75